Parçalı ve az yüksek bulutlu
Parçalı ve az yüksek bulutlu
Parçalı ve az yüksek bulutlu
Parçalı ve yüksek bulutlu
Genellikle bulutlu ve yüksek bulutlu
Genellikle bulutlu ve yüksek bulutlu
Genellikle bulutlu ve az miktar yüksek bulutlu
Parçalı bulutlu
Açık ve az alçak bulutlu
(°C)
15°
15°
14°
14°
14°
14°
14°
14°
14°
14°
14°
14°
14°
14°
15°
15°
16°
16°
(°C)
12°
12°
11°
11°
11°
11°
11°
12°
13°
K
K
K
KKD
KKD
KKD
KKD
KKD
KKD
(km/h)
13-21
13-21
14-22
14-22
14-22
15-25
15-24
17-26
18-28
(mm)
0
0
0
0
0
0
0
0
0
(%)
0
6
0
0
0
0
0
0
0

Güneşin açısı

/ -14.1°
sun-icon
UV 4
03:29
20:08
Küçülen ay (195°)
21:10
03:57

55.61°K 49.28°D (UWKD) için METAR

Zaman Koşullar Sıcaklık/
Çiy noktası
Rüzgar Görünürlük Hava Bulutlar Basınç Değiştir Ham
VFR 14°C / 10°C 20º 8kt 9700m - Broken Clouds 3300ft 1012 No Significant change UWKD 222000Z 02004MPS 9999 BKN033 14/10 Q1012 R29/CLRD70 NOSIG RMK QFE747/0997
VFR 15°C / 11°C 30º 8kt 9700m - Overcast 3200ft 1012 No Significant change UWKD 221930Z 03004MPS 9999 OVC032 15/11 Q1012 R29/70D NOSIG RMK QFE747/0997
VFR 15°C / 11°C 30º 8kt 9700m - Overcast 3100ft 1011 No Significant change UWKD 221900Z 03004MPS 9999 OVC031 15/11 Q1011 R29/CLRD70 NOSIG RMK QFE747/0997
VFR 15°C / 11°C 20º 8kt 9700m - Overcast 3800ft 1011 No Significant change UWKD 221830Z 02004MPS 9999 OVC038 15/11 Q1011 R11/CLRD70 NOSIG RMK QFE748/0998
MVFR 15°C / 11°C 20º 8kt 9700m - Overcast 2700ft 1011 No Significant change UWKD 221800Z 02004MPS 9999 OVC027 15/11 Q1011 R11/70D NOSIG RMK QFE748/0998
MVFR 16°C / 11°C 30º 8kt 9700m - Overcast 2900ft 1012 No Significant change UWKD 221730Z 03004MPS 9999 OVC029 16/11 Q1012 R11/70D NOSIG RMK QFE748/0998
MVFR 16°C / 12°C 30º variable 010º to 070º 8kt 9700m - Overcast 3000ft 1011 No Significant change UWKD 221700Z 03004MPS 010V070 9999 OVC030 16/12 Q1011 R11/CLRD70 NOSIG RMK QFE748/0998
MVFR 16°C / 12°C 40º 10kt 9700m - Overcast 2700ft 1011 No Significant change UWKD 221630Z 04005MPS 9999 OVC027 16/12 Q1011 R11/CLRD70 NOSIG RMK QFE748/0998
MVFR 16°C / 12°C 40º 14kt 9700m - Overcast 2700ft 1011 No Significant change. Runway 11: Damp, with <1mm, friction coefficient 0.60. UWKD 221600Z 04007MPS 9999 OVC027 16/12 Q1011 R11/1/0060 NOSIG RMK QFE748/0997
VFR 16°C / 12°C 40º 12kt 9700m - Overcast 3400ft 1011 No Significant change. Runway 11: Damp, with <1mm, friction coefficient 0.60. UWKD 221530Z 04006MPS 9999 OVC034 16/12 Q1011 R11/1/0060 NOSIG RMK QFE748/0997
MVFR 17°C / 12°C 30º 12kt 9700m - Overcast 2500ft 1010 No Significant change. Runway 11: Damp, with <1mm, friction coefficient 0.60. UWKD 221500Z 03006MPS 9999 OVC025 17/12 Q1010 R11/1/0060 NOSIG RMK QFE748/0997
MVFR 17°C / 12°C 50º 14kt 9700m - Broken Clouds 2500ft 1010 No Significant change. Runway 11: Damp, with <1mm, friction coefficient 0.60. UWKD 221430Z 05007MPS 9999 BKN025 17/12 Q1010 R11/1/0060 NOSIG RMK QFE747/0997
MVFR 17°C / 12°C 50º 14kt 9700m - Broken Clouds 2300ft 1010 No Significant change. Runway 11: Damp, with <1mm, friction coefficient 0.60. UWKD 221400Z 05007MPS 9999 BKN023 17/12 Q1010 R11/1/0060 NOSIG RMK QFE747/0997
MVFR 17°C / 13°C 40º variable 010º to 070º 10kt 9700m - Overcast 2900ft 1010 No Significant change. Runway 11: Damp, with <1mm, friction coefficient 0.60. UWKD 221330Z 04005MPS 010V070 9999 OVC029 17/13 Q1010 R11/1/0060 NOSIG RMK QFE747/0997
MVFR 16°C / 13°C 40º 12kt 9700m - Overcast 1600ft 1010 No Significant change. Runway 11: Damp, with <1mm, friction coefficient 0.60. UWKD 221300Z 04006MPS 9999 OVC016 16/13 Q1010 R11/1/0060 NOSIG RMK QFE747/0996
MVFR 16°C / 13°C 30º 10kt 9700m - Overcast 1700ft 1010 No Significant change. Runway 11: Damp, with <1mm, friction coefficient 0.60. UWKD 221230Z 03005MPS 9999 OVC017 16/13 Q1010 R11/1/0060 NOSIG RMK QFE747/0996
MVFR 16°C / 13°C 20º 12kt 9700m - Overcast 1400ft 1010 No Significant change. Runway 11: Damp, with <1mm, friction coefficient 0.60. UWKD 221200Z 02006MPS 9999 OVC014 16/13 Q1010 R11/1/0060 NOSIG RMK QFE747/0996
MVFR 15°C / 13°C 40º variable 020º to 080º 12kt 9700m - Overcast 1400ft 1009 No Significant change. Runway 11: Damp, with <1mm, friction coefficient 0.60. UWKD 221130Z 04006MPS 020V080 9999 OVC014 15/13 Q1009 R11/1/0060 NOSIG RMK QFE747/0996
MVFR 15°C / 13°C 30º variable 360º to 060º 10kt 9700m - Overcast 1300ft 1009 No Significant change. Runway 11: Damp, with <1mm, friction coefficient 0.60. UWKD 221100Z 03005MPS 360V060 9999 OVC013 15/13 Q1009 R11/1/0060 NOSIG RMK QFE747/0996
MVFR 15°C / 13°C 30º 14kt 9700m - Overcast 1200ft 1009 No Significant change. Runway 11: Damp, with <1mm, friction coefficient 0.60. UWKD 221030Z 03007MPS 9999 OVC012 15/13 Q1009 R11/1/0060 NOSIG RMK QFE746/0995
MVFR 15°C / 13°C 40º 14kt 9700m - Overcast 1200ft 1008 No Significant change. Runway 11: Wet or puddles, with <1mm, friction coefficient 0.50. UWKD 221000Z 04007MPS 9999 OVC012 15/13 Q1008 R11/2/0050 NOSIG RMK QFE746/0995
MVFR 16°C / 14°C 40º variable 020º to 080º 12kt 9700m - Overcast 1100ft 1008 No Significant change. Runway 11: Wet or puddles, with <1mm, friction coefficient 0.50. UWKD 220930Z 04006MPS 020V080 9999 OVC011 16/14 Q1008 R11/2/0050 NOSIG RMK QFE746/0995
MVFR 16°C / 14°C 20º 12kt 9700m - Overcast 1100ft 1008 No Significant change. Runway 11: Wet or puddles, with <1mm, friction coefficient 0.50. UWKD 220900Z 02006MPS 9999 OVC011 16/14 Q1008 R11/2/0050 NOSIG RMK QFE746/0994
MVFR 16°C / 14°C 50º 12kt 9700m - Overcast 1100ft 1007 No Significant change. Runway 11: Wet or puddles, with <1mm, friction coefficient 0.50. UWKD 220830Z 05006MPS 9999 OVC011 16/14 Q1007 R11/2/0050 NOSIG RMK QFE745/0994

VFR

14°C / 10°C

[Daha fazla]
Rüzgar 20º 8kt
Görünürlük 9700m
Hava -
Bulutlar Broken Clouds 3300ft
Basınç 1012
Değiştir No Significant change
Ham UWKD 222000Z 02004MPS 9999 BKN033 14/10 Q1012 R29/CLRD70 NOSIG RMK QFE747/0997

VFR

15°C / 11°C

[Daha fazla]
Rüzgar 30º 8kt
Görünürlük 9700m
Hava -
Bulutlar Overcast 3200ft
Basınç 1012
Değiştir No Significant change
Ham UWKD 221930Z 03004MPS 9999 OVC032 15/11 Q1012 R29/70D NOSIG RMK QFE747/0997

VFR

15°C / 11°C

[Daha fazla]
Rüzgar 30º 8kt
Görünürlük 9700m
Hava -
Bulutlar Overcast 3100ft
Basınç 1011
Değiştir No Significant change
Ham UWKD 221900Z 03004MPS 9999 OVC031 15/11 Q1011 R29/CLRD70 NOSIG RMK QFE747/0997

VFR

15°C / 11°C

[Daha fazla]
Rüzgar 20º 8kt
Görünürlük 9700m
Hava -
Bulutlar Overcast 3800ft
Basınç 1011
Değiştir No Significant change
Ham UWKD 221830Z 02004MPS 9999 OVC038 15/11 Q1011 R11/CLRD70 NOSIG RMK QFE748/0998

MVFR

15°C / 11°C

[Daha fazla]
Rüzgar 20º 8kt
Görünürlük 9700m
Hava -
Bulutlar Overcast 2700ft
Basınç 1011
Değiştir No Significant change
Ham UWKD 221800Z 02004MPS 9999 OVC027 15/11 Q1011 R11/70D NOSIG RMK QFE748/0998

MVFR

16°C / 11°C

[Daha fazla]
Rüzgar 30º 8kt
Görünürlük 9700m
Hava -
Bulutlar Overcast 2900ft
Basınç 1012
Değiştir No Significant change
Ham UWKD 221730Z 03004MPS 9999 OVC029 16/11 Q1012 R11/70D NOSIG RMK QFE748/0998

MVFR

16°C / 12°C

[Daha fazla]
Rüzgar 30º variable 010º to 070º 8kt
Görünürlük 9700m
Hava -
Bulutlar Overcast 3000ft
Basınç 1011
Değiştir No Significant change
Ham UWKD 221700Z 03004MPS 010V070 9999 OVC030 16/12 Q1011 R11/CLRD70 NOSIG RMK QFE748/0998

MVFR

16°C / 12°C

[Daha fazla]
Rüzgar 40º 10kt
Görünürlük 9700m
Hava -
Bulutlar Overcast 2700ft
Basınç 1011
Değiştir No Significant change
Ham UWKD 221630Z 04005MPS 9999 OVC027 16/12 Q1011 R11/CLRD70 NOSIG RMK QFE748/0998

MVFR

16°C / 12°C

[Daha fazla]
Rüzgar 40º 14kt
Görünürlük 9700m
Hava -
Bulutlar Overcast 2700ft
Basınç 1011
Değiştir No Significant change. Runway 11: Damp, with <1mm, friction coefficient 0.60.
Ham UWKD 221600Z 04007MPS 9999 OVC027 16/12 Q1011 R11/1/0060 NOSIG RMK QFE748/0997

VFR

16°C / 12°C

[Daha fazla]
Rüzgar 40º 12kt
Görünürlük 9700m
Hava -
Bulutlar Overcast 3400ft
Basınç 1011
Değiştir No Significant change. Runway 11: Damp, with <1mm, friction coefficient 0.60.
Ham UWKD 221530Z 04006MPS 9999 OVC034 16/12 Q1011 R11/1/0060 NOSIG RMK QFE748/0997

MVFR

17°C / 12°C

[Daha fazla]
Rüzgar 30º 12kt
Görünürlük 9700m
Hava -
Bulutlar Overcast 2500ft
Basınç 1010
Değiştir No Significant change. Runway 11: Damp, with <1mm, friction coefficient 0.60.
Ham UWKD 221500Z 03006MPS 9999 OVC025 17/12 Q1010 R11/1/0060 NOSIG RMK QFE748/0997

MVFR

17°C / 12°C

[Daha fazla]
Rüzgar 50º 14kt
Görünürlük 9700m
Hava -
Bulutlar Broken Clouds 2500ft
Basınç 1010
Değiştir No Significant change. Runway 11: Damp, with <1mm, friction coefficient 0.60.
Ham UWKD 221430Z 05007MPS 9999 BKN025 17/12 Q1010 R11/1/0060 NOSIG RMK QFE747/0997

MVFR

17°C / 12°C

[Daha fazla]
Rüzgar 50º 14kt
Görünürlük 9700m
Hava -
Bulutlar Broken Clouds 2300ft
Basınç 1010
Değiştir No Significant change. Runway 11: Damp, with <1mm, friction coefficient 0.60.
Ham UWKD 221400Z 05007MPS 9999 BKN023 17/12 Q1010 R11/1/0060 NOSIG RMK QFE747/0997

MVFR

17°C / 13°C

[Daha fazla]
Rüzgar 40º variable 010º to 070º 10kt
Görünürlük 9700m
Hava -
Bulutlar Overcast 2900ft
Basınç 1010
Değiştir No Significant change. Runway 11: Damp, with <1mm, friction coefficient 0.60.
Ham UWKD 221330Z 04005MPS 010V070 9999 OVC029 17/13 Q1010 R11/1/0060 NOSIG RMK QFE747/0997

MVFR

16°C / 13°C

[Daha fazla]
Rüzgar 40º 12kt
Görünürlük 9700m
Hava -
Bulutlar Overcast 1600ft
Basınç 1010
Değiştir No Significant change. Runway 11: Damp, with <1mm, friction coefficient 0.60.
Ham UWKD 221300Z 04006MPS 9999 OVC016 16/13 Q1010 R11/1/0060 NOSIG RMK QFE747/0996

MVFR

16°C / 13°C

[Daha fazla]
Rüzgar 30º 10kt
Görünürlük 9700m
Hava -
Bulutlar Overcast 1700ft
Basınç 1010
Değiştir No Significant change. Runway 11: Damp, with <1mm, friction coefficient 0.60.
Ham UWKD 221230Z 03005MPS 9999 OVC017 16/13 Q1010 R11/1/0060 NOSIG RMK QFE747/0996

MVFR

16°C / 13°C

[Daha fazla]
Rüzgar 20º 12kt
Görünürlük 9700m
Hava -
Bulutlar Overcast 1400ft
Basınç 1010
Değiştir No Significant change. Runway 11: Damp, with <1mm, friction coefficient 0.60.
Ham UWKD 221200Z 02006MPS 9999 OVC014 16/13 Q1010 R11/1/0060 NOSIG RMK QFE747/0996

MVFR

15°C / 13°C

[Daha fazla]
Rüzgar 40º variable 020º to 080º 12kt
Görünürlük 9700m
Hava -
Bulutlar Overcast 1400ft
Basınç 1009
Değiştir No Significant change. Runway 11: Damp, with <1mm, friction coefficient 0.60.
Ham UWKD 221130Z 04006MPS 020V080 9999 OVC014 15/13 Q1009 R11/1/0060 NOSIG RMK QFE747/0996

MVFR

15°C / 13°C

[Daha fazla]
Rüzgar 30º variable 360º to 060º 10kt
Görünürlük 9700m
Hava -
Bulutlar Overcast 1300ft
Basınç 1009
Değiştir No Significant change. Runway 11: Damp, with <1mm, friction coefficient 0.60.
Ham UWKD 221100Z 03005MPS 360V060 9999 OVC013 15/13 Q1009 R11/1/0060 NOSIG RMK QFE747/0996

MVFR

15°C / 13°C

[Daha fazla]
Rüzgar 30º 14kt
Görünürlük 9700m
Hava -
Bulutlar Overcast 1200ft
Basınç 1009
Değiştir No Significant change. Runway 11: Damp, with <1mm, friction coefficient 0.60.
Ham UWKD 221030Z 03007MPS 9999 OVC012 15/13 Q1009 R11/1/0060 NOSIG RMK QFE746/0995

MVFR

15°C / 13°C

[Daha fazla]
Rüzgar 40º 14kt
Görünürlük 9700m
Hava -
Bulutlar Overcast 1200ft
Basınç 1008
Değiştir No Significant change. Runway 11: Wet or puddles, with <1mm, friction coefficient 0.50.
Ham UWKD 221000Z 04007MPS 9999 OVC012 15/13 Q1008 R11/2/0050 NOSIG RMK QFE746/0995

MVFR

16°C / 14°C

[Daha fazla]
Rüzgar 40º variable 020º to 080º 12kt
Görünürlük 9700m
Hava -
Bulutlar Overcast 1100ft
Basınç 1008
Değiştir No Significant change. Runway 11: Wet or puddles, with <1mm, friction coefficient 0.50.
Ham UWKD 220930Z 04006MPS 020V080 9999 OVC011 16/14 Q1008 R11/2/0050 NOSIG RMK QFE746/0995

MVFR

16°C / 14°C

[Daha fazla]
Rüzgar 20º 12kt
Görünürlük 9700m
Hava -
Bulutlar Overcast 1100ft
Basınç 1008
Değiştir No Significant change. Runway 11: Wet or puddles, with <1mm, friction coefficient 0.50.
Ham UWKD 220900Z 02006MPS 9999 OVC011 16/14 Q1008 R11/2/0050 NOSIG RMK QFE746/0994

MVFR

16°C / 14°C

[Daha fazla]
Rüzgar 50º 12kt
Görünürlük 9700m
Hava -
Bulutlar Overcast 1100ft
Basınç 1007
Değiştir No Significant change. Runway 11: Wet or puddles, with <1mm, friction coefficient 0.50.
Ham UWKD 220830Z 05006MPS 9999 OVC011 16/14 Q1007 R11/2/0050 NOSIG RMK QFE745/0994

55.61°K 49.28°D (UWKD) için TAF

From till


Maximum Temperature 21ºC on . Minimum Temperature 13ºC on .
From till Wind 40º 10kt. Visibility 9700m. Broken Clouds 1600ft.

Ham: TAF UWKD 221700Z 2218/2318 04005MPS 9999 BKN016 TX21/2312Z TN13/2301Z

55.61°K 49.28°D için radar ve yağış nowcast

Çise
Hafif
Orta
Ağır
Çok ağır
Dolu

Konum işaretleyicisi 55.61°K 49.28°D üzerine yerleştirilir. Bu animasyon, seçilen zaman aralığı için yağış radarının yanı sıra 2h tahminini gösterir. Turuncu çarpılar yıldırımı göstermektedir. Veriler nowcast.de tarafından sağlanmıştır (ABD, Avrupa ve Avustralya'da erişimi mevcuttur). Çiseleyen yağmur veya hafif kar yağışı radarda görünmeyebilir. Yağış yoğunluğu turkuazdan kırmızıya kadar değişen renklerle kodlanmıştır.

55.61°K 49.28°D için şu anki uydu ve yağmur görüntüleri

Konum işaretleyici 55.61°K 49.28°D üzerine yerleştirilir. [Daha fazla]

Gerçek zamanlı uydu görüntüsü gündüz süresince görülür ışığı gece süresince kızılötesi ışınım ile birleştirir. Gece kızılötesi ışınım sıcaklık farklarını algılayabildiğinden dolayı görüntü karanlık değildir. Ancak düşük bulutları ve sisi yer sıcaklığından ayırmak zordur ve bu nedenle gece boyunca neredeyse görünmez olabilirler. Avrupa için Meteosat uydu görüntüleri gerçek zamanlı olarak her 5 dakikada bir güncellenir. GOES-16/GOES-17 (Kuzey ve Güney Amerika) ve Himawari (Asya) görüntüleri her 10 dakikada bir güncellenir.

Yağış radar ve uydulardan tahmin edilir. Uydulardan elde edilen yağış tahminleri geceleri gündüze göre daha az doğrudur.

© 2024 meteoblue, NOAA Satellites GOES-16 and EUMETSAT. nowcast tarafından sağlanan şimşek verileri.

En başa git
×
Merhaba,
bir reklam engelleyici kullanıyormuşsunuz gibi görünüyor.

Reklam, ücretsiz web sitemizi benzersiz ayrıntı ve doğrulukla sürdürmek için çok önemlidir.

Lütfen reklam engelleyicinizde www.meteoblue.com beyaz listesini beyaz listeye alın veya ürünlerimizden birini satın almayı düşünün:

Zaten bir aboneliğiniz var mı?
O halde lütfen giriş yapın.